Austin, Texas
Traffic Map
Current Weather Conditions
Austin, Texas
Overcast Haze
Overcast
23°
Feels Like: 23°
Wind Chill: 23° Ceiling: 800
Heat Index: 23° Visibility: 6mi
Dew Point: 22° Wind: 5mph
Humidity: 96% Direction: ° ()
Pressure: 30.1in Gusts: 0mph
Raw Report DataKATT 261400Z AUTO VRB04KT 6SM BR BKN008 OVC015 23/22 A3010 RMK AO2 RAE1359 P0000 T02280222
Traffic Incident Summary
Active as of:
Severity:
Category:
InformationThere was an issue retrieving the traffic information for this location. Please try a different location or try again shortly.
Advertisements
Track Severe Weather on mobile